sensor_id;sensor_type;location;lat;lon;timestamp;pressure;altitude;pressure_sealevel;temperature;humidity
73748;BME280;62056;52.130;5.428;2023-10-08T00:00:48;102456.50;;;18.01;78.79
73748;BME280;62056;52.130;5.428;2023-10-08T00:03:23;102458.69;;;17.99;78.55
73748;BME280;62056;52.130;5.428;2023-10-08T00:05:51;102469.47;;;17.99;79.21
73748;BME280;62056;52.130;5.428;2023-10-08T00:08:18;102477.03;;;17.97;79.21
73748;BME280;62056;52.130;5.428;2023-10-08T00:10:46;102488.91;;;17.96;79.16
73748;BME280;62056;52.130;5.428;2023-10-08T00:13:14;102494.28;;;17.96;79.88
73748;BME280;62056;52.130;5.428;2023-10-08T00:15:43;102499.97;;;17.94;79.83
73748;BME280;62056;52.130;5.428;2023-10-08T00:18:21;102520.38;;;17.95;80.28
73748;BME280;62056;52.130;5.428;2023-10-08T00:20:50;102506.13;;;17.95;81.42
73748;BME280;62056;52.130;5.428;2023-10-08T00:23:44;102488.09;;;17.95;81.17
73748;BME280;62056;52.130;5.428;2023-10-08T00:26:28;102492.69;;;17.95;81.17
73748;BME280;62056;52.130;5.428;2023-10-08T00:29:05;102493.78;;;17.94;81.58
73748;BME280;62056;52.130;5.428;2023-10-08T00:31:43;102499.19;;;17.94;80.80
73748;BME280;62056;52.130;5.428;2023-10-08T00:34:12;102491.09;;;17.94;81.46
73748;BME280;62056;52.130;5.428;2023-10-08T00:36:42;102495.97;;;17.92;81.37
73748;BME280;62056;52.130;5.428;2023-10-08T00:39:10;102484.91;;;17.93;81.16
73748;BME280;62056;52.130;5.428;2023-10-08T00:41:41;102472.56;;;17.92;81.35
73748;BME280;62056;52.130;5.428;2023-10-08T00:44:11;102476.03;;;17.93;81.33
73748;BME280;62056;52.130;5.428;2023-10-08T00:46:49;102479.84;;;17.92;80.96
73748;BME280;62056;52.130;5.428;2023-10-08T00:49:20;102470.66;;;17.93;81.45
73748;BME280;62056;52.130;5.428;2023-10-08T00:52:15;102471.44;;;17.93;81.10
73748;BME280;62056;52.130;5.428;2023-10-08T00:54:42;102464.47;;;17.92;81.29
73748;BME280;62056;52.130;5.428;2023-10-08T00:57:20;102451.31;;;17.91;80.72
73748;BME280;62056;52.130;5.428;2023-10-08T00:59:48;102455.91;;;17.90;80.50
73748;BME280;62056;52.130;5.428;2023-10-08T01:02:25;102457.81;;;17.90;81.27
73748;BME280;62056;52.130;5.428;2023-10-08T01:04:55;102460.50;;;17.90;80.68
73748;BME280;62056;52.130;5.428;2023-10-08T01:07:23;102450.03;;;17.88;80.42
73748;BME280;62056;52.130;5.428;2023-10-08T01:09:51;102453.78;;;17.87;80.24
73748;BME280;62056;52.130;5.428;2023-10-08T01:12:23;102455.69;;;17.87;81.48
73748;BME280;62056;52.130;5.428;2023-10-08T01:15:10;102456.28;;;17.84;81.38
73748;BME280;62056;52.130;5.428;2023-10-08T01:17:42;102440.41;;;17.82;80.83
73748;BME280;62056;52.130;5.428;2023-10-08T01:20:18;102449.56;;;17.81;81.55
73748;BME280;62056;52.130;5.428;2023-10-08T01:23:15;102436.44;;;17.79;81.26
73748;BME280;62056;52.130;5.428;2023-10-08T01:25:49;102442.09;;;17.78;80.97
73748;BME280;62056;52.130;5.428;2023-10-08T01:28:19;102445.06;;;17.76;80.97
73748;BME280;62056;52.130;5.428;2023-10-08T01:30:53;102457.72;;;17.76;81.32
73748;BME280;62056;52.130;5.428;2023-10-08T01:33:21;102453.75;;;17.73;81.52
73748;BME280;62056;52.130;5.428;2023-10-08T01:35:49;102459.41;;;17.72;81.83
73748;BME280;62056;52.130;5.428;2023-10-08T01:38:16;102477.75;;;17.70;81.36
73748;BME280;62056;52.130;5.428;2023-10-08T01:40:50;102482.13;;;17.66;82.04
73748;BME280;62056;52.130;5.428;2023-10-08T01:43:18;102473.53;;;17.64;82.04
73748;BME280;62056;52.130;5.428;2023-10-08T01:45:45;102487.78;;;17.64;82.26
73748;BME280;62056;52.130;5.428;2023-10-08T01:48:16;102486.19;;;17.63;81.94
73748;BME280;62056;52.130;5.428;2023-10-08T01:50:47;102486.47;;;17.62;82.19
73748;BME280;62056;52.130;5.428;2023-10-08T01:53:14;102484.09;;;17.60;81.99
73748;BME280;62056;52.130;5.428;2023-10-08T01:55:42;102499.13;;;17.61;82.08
73748;BME280;62056;52.130;5.428;2023-10-08T01:58:16;102521.22;;;17.58;82.53
73748;BME280;62056;52.130;5.428;2023-10-08T02:00:46;102518.03;;;17.56;82.57
73748;BME280;62056;52.130;5.428;2023-10-08T02:03:16;102528.50;;;17.57;82.76
73748;BME280;62056;52.130;5.428;2023-10-08T02:05:45;102531.47;;;17.56;82.62
73748;BME280;62056;52.130;5.428;2023-10-08T02:08:14;102531.47;;;17.56;82.32
73748;BME280;62056;52.130;5.428;2023-10-08T02:10:42;102526.91;;;17.56;81.94
73748;BME280;62056;52.130;5.428;2023-10-08T02:13:10;102534.16;;;17.56;82.01
73748;BME280;62056;52.130;5.428;2023-10-08T02:15:43;102525.31;;;17.55;82.62
73748;BME280;62056;52.130;5.428;2023-10-08T02:18:10;102528.28;;;17.54;82.42
73748;BME280;62056;52.130;5.428;2023-10-08T02:20:37;102526.97;;;17.51;81.92
73748;BME280;62056;52.130;5.428;2023-10-08T02:23:06;102521.09;;;17.49;82.11
73748;BME280;62056;52.130;5.428;2023-10-08T02:25:33;102534.53;;;17.49;82.79
73748;BME280;62056;52.130;5.428;2023-10-08T02:28:03;102506.06;;;17.48;81.91
73748;BME280;62056;52.130;5.428;2023-10-08T02:30:30;102491.22;;;17.51;82.83
73748;BME280;62056;52.130;5.428;2023-10-08T02:32:57;102517.63;;;17.49;81.55
73748;BME280;62056;52.130;5.428;2023-10-08T02:35:26;102528.38;;;17.49;82.26
73748;BME280;62056;52.130;5.428;2023-10-08T02:37:54;102538.91;;;17.45;82.22
73748;BME280;62056;52.130;5.428;2023-10-08T02:40:21;102525.47;;;17.45;83.03
73748;BME280;62056;52.130;5.428;2023-10-08T02:42:54;102516.31;;;17.46;83.30
73748;BME280;62056;52.130;5.428;2023-10-08T02:45:28;102506.34;;;17.47;82.92
73748;BME280;62056;52.130;5.428;2023-10-08T02:47:56;102491.81;;;17.48;82.28
73748;BME280;62056;52.130;5.428;2023-10-08T02:50:24;102493.41;;;17.49;83.09
73748;BME280;62056;52.130;5.428;2023-10-08T02:52:53;102517.91;;;17.47;83.11
73748;BME280;62056;52.130;5.428;2023-10-08T02:55:20;102561.53;;;17.44;82.35
73748;BME280;62056;52.130;5.428;2023-10-08T02:58:01;102510.44;;;17.44;83.24
73748;BME280;62056;52.130;5.428;2023-10-08T03:00:29;102545.38;;;17.44;83.74
73748;BME280;62056;52.130;5.428;2023-10-08T03:03:00;102544.06;;;17.42;84.32
73748;BME280;62056;52.130;5.428;2023-10-08T03:05:29;102510.72;;;17.43;83.79
73748;BME280;62056;52.130;5.428;2023-10-08T03:08:03;102517.69;;;17.44;84.52
73748;BME280;62056;52.130;5.428;2023-10-08T03:10:38;102547.25;;;17.44;83.63
73748;BME280;62056;52.130;5.428;2023-10-08T03:13:08;102533.03;;;17.43;84.19
73748;BME280;62056;52.130;5.428;2023-10-08T03:15:36;102536.50;;;17.44;84.24
73748;BME280;62056;52.130;5.428;2023-10-08T03:18:21;102533.81;;;17.44;83.86
73748;BME280;62056;52.130;5.428;2023-10-08T03:20:48;102521.19;;;17.44;83.85
73748;BME280;62056;52.130;5.428;2023-10-08T03:23:17;102538.41;;;17.43;84.09
73748;BME280;62056;52.130;5.428;2023-10-08T03:25:52;102526.34;;;17.40;84.53
73748;BME280;62056;52.130;5.428;2023-10-08T03:28:23;102516.38;;;17.41;84.43
73748;BME280;62056;52.130;5.428;2023-10-08T03:30:52;102505.63;;;17.41;84.34
73748;BME280;62056;52.130;5.428;2023-10-08T03:33:22;102514.47;;;17.42;84.08
73748;BME280;62056;52.130;5.428;2023-10-08T03:35:51;102523.66;;;17.40;84.30
73748;BME280;62056;52.130;5.428;2023-10-08T03:38:24;102550.03;;;17.38;83.99
73748;BME280;62056;52.130;5.428;2023-10-08T03:41:10;102573.22;;;17.34;84.23
73748;BME280;62056;52.130;5.428;2023-10-08T03:43:42;102577.56;;;17.30;85.50
73748;BME280;62056;52.130;5.428;2023-10-08T03:46:13;102574.38;;;17.28;85.56
73748;BME280;62056;52.130;5.428;2023-10-08T03:48:43;102570.88;;;17.28;85.62
73748;BME280;62056;52.130;5.428;2023-10-08T03:51:12;102572.47;;;17.29;85.83
73748;BME280;62056;52.130;5.428;2023-10-08T03:53:39;102579.47;;;17.30;86.14
73748;BME280;62056;52.130;5.428;2023-10-08T03:56:25;102577.84;;;17.29;85.42
73748;BME280;62056;52.130;5.428;2023-10-08T03:58:52;102593.19;;;17.28;86.31
73748;BME280;62056;52.130;5.428;2023-10-08T04:01:22;102588.09;;;17.27;88.35
73748;BME280;62056;52.130;5.428;2023-10-08T04:03:50;102593.03;;;17.19;86.76
73748;BME280;62056;52.130;5.428;2023-10-08T04:06:27;102600.34;;;17.14;87.35
73748;BME280;62056;52.130;5.428;2023-10-08T04:09:05;102625.41;;;17.09;87.25
73748;BME280;62056;52.130;5.428;2023-10-08T04:11:36;102635.22;;;17.00;87.08
73748;BME280;62056;52.130;5.428;2023-10-08T04:14:16;102632.91;;;16.88;87.74
73748;BME280;62056;52.130;5.428;2023-10-08T04:16:43;102637.84;;;16.76;88.28
73748;BME280;62056;52.130;5.428;2023-10-08T04:19:10;102639.31;;;16.63;88.50
73748;BME280;62056;52.130;5.428;2023-10-08T04:21:41;102645.31;;;16.50;88.42
73748;BME280;62056;52.130;5.428;2023-10-08T04:24:11;102646.69;;;16.47;88.07
73748;BME280;62056;52.130;5.428;2023-10-08T04:26:42;102640.03;;;16.45;87.60
73748;BME280;62056;52.130;5.428;2023-10-08T04:29:09;102631.53;;;16.32;87.46
73748;BME280;62056;52.130;5.428;2023-10-08T04:31:37;102632.63;;;16.31;87.35
73748;BME280;62056;52.130;5.428;2023-10-08T04:34:05;102631.53;;;16.32;87.06
73748;BME280;62056;52.130;5.428;2023-10-08T04:36:44;102621.31;;;16.34;86.65
73748;BME280;62056;52.130;5.428;2023-10-08T04:39:21;102621.03;;;16.36;86.38
73748;BME280;62056;52.130;5.428;2023-10-08T04:41:49;102623.47;;;16.32;86.48
73748;BME280;62056;52.130;5.428;2023-10-08T04:44:20;102605.25;;;16.29;86.30
73748;BME280;62056;52.130;5.428;2023-10-08T04:46:48;102600.69;;;16.30;86.00
73748;BME280;62056;52.130;5.428;2023-10-08T04:49:19;102602.28;;;16.31;85.90
73748;BME280;62056;52.130;5.428;2023-10-08T04:51:58;102608.16;;;16.33;85.88
73748;BME280;62056;52.130;5.428;2023-10-08T04:54:26;102626.44;;;16.31;85.25
73748;BME280;62056;52.130;5.428;2023-10-08T04:56:59;102638.28;;;16.25;85.58
73748;BME280;62056;52.130;5.428;2023-10-08T04:59:30;102654.72;;;16.18;86.07
73748;BME280;62056;52.130;5.428;2023-10-08T05:02:03;102648.34;;;16.09;86.38
73748;BME280;62056;52.130;5.428;2023-10-08T05:04:48;102641.38;;;16.08;85.91
73748;BME280;62056;52.130;5.428;2023-10-08T05:07:20;102651.06;;;16.04;86.01
73748;BME280;62056;52.130;5.428;2023-10-08T05:09:55;102642.22;;;16.03;86.38
73748;BME280;62056;52.130;5.428;2023-10-08T05:12:34;102648.69;;;16.02;86.25
73748;BME280;62056;52.130;5.428;2023-10-08T05:15:04;102636.84;;;16.03;85.94
73748;BME280;62056;52.130;5.428;2023-10-08T05:17:44;102647.84;;;16.07;86.03
73748;BME280;62056;52.130;5.428;2023-10-08T05:20:14;102646.75;;;16.08;85.74
73748;BME280;62056;52.130;5.428;2023-10-08T05:22:56;102661.53;;;16.05;85.54
73748;BME280;62056;52.130;5.428;2023-10-08T05:25:32;102663.41;;;16.05;85.67
73748;BME280;62056;52.130;5.428;2023-10-08T05:28:20;102676.31;;;16.03;85.50
73748;BME280;62056;52.130;5.428;2023-10-08T05:30:51;102688.41;;;16.00;85.51
73748;BME280;62056;52.130;5.428;2023-10-08T05:33:37;102688.41;;;15.95;85.70
73748;BME280;62056;52.130;5.428;2023-10-08T05:36:22;102691.38;;;15.93;85.57
73748;BME280;62056;52.130;5.428;2023-10-08T05:39:02;102687.13;;;15.87;85.54
73748;BME280;62056;52.130;5.428;2023-10-08T05:41:48;102692.53;;;15.82;85.09
73748;BME280;62056;52.130;5.428;2023-10-08T05:44:19;102702.47;;;15.76;85.04
73748;BME280;62056;52.130;5.428;2023-10-08T05:46:46;102685.31;;;15.72;84.48
73748;BME280;62056;52.130;5.428;2023-10-08T05:49:33;102703.31;;;15.67;84.37
73748;BME280;62056;52.130;5.428;2023-10-08T05:52:03;102728.25;;;15.62;84.03
73748;BME280;62056;52.130;5.428;2023-10-08T05:54:31;102750.25;;;15.54;84.34
73748;BME280;62056;52.130;5.428;2023-10-08T05:57:03;102743.06;;;15.44;84.26
73748;BME280;62056;52.130;5.428;2023-10-08T05:59:45;102716.78;;;15.41;84.14
73748;BME280;62056;52.130;5.428;2023-10-08T06:02:29;102701.78;;;15.40;84.39
73748;BME280;62056;52.130;5.428;2023-10-08T06:05:01;102689.75;;;15.37;83.90
73748;BME280;62056;52.130;5.428;2023-10-08T06:07:48;102683.84;;;15.35;84.14
73748;BME280;62056;52.130;5.428;2023-10-08T06:10:30;102692.44;;;15.32;83.36
73748;BME280;62056;52.130;5.428;2023-10-08T06:13:06;102721.66;;;15.29;83.65
73748;BME280;62056;52.130;5.428;2023-10-08T06:15:41;102725.97;;;15.20;83.65
73748;BME280;62056;52.130;5.428;2023-10-08T06:18:24;102732.38;;;15.18;83.84
73748;BME280;62056;52.130;5.428;2023-10-08T06:20:59;102748.19;;;15.20;83.71
73748;BME280;62056;52.130;5.428;2023-10-08T06:23:28;102739.63;;;15.18;83.48
73748;BME280;62056;52.130;5.428;2023-10-08T06:25:56;102751.44;;;15.17;83.15
73748;BME280;62056;52.130;5.428;2023-10-08T06:28:32;102740.19;;;15.15;83.11
73748;BME280;62056;52.130;5.428;2023-10-08T06:31:02;102758.41;;;15.13;82.81
73748;BME280;62056;52.130;5.428;2023-10-08T06:33:33;102770.47;;;15.15;83.47
73748;BME280;62056;52.130;5.428;2023-10-08T06:36:01;102757.59;;;15.12;83.20
73748;BME280;62056;52.130;5.428;2023-10-08T06:38:30;102759.75;;;15.15;83.90
73748;BME280;62056;52.130;5.428;2023-10-08T06:41:00;102757.03;;;15.21;84.19
73748;BME280;62056;52.130;5.428;2023-10-08T06:43:27;102763.47;;;15.25;84.72
73748;BME280;62056;52.130;5.428;2023-10-08T06:45:54;102766.69;;;15.32;85.56
73748;BME280;62056;52.130;5.428;2023-10-08T06:48:25;102767.19;;;15.39;85.88
73748;BME280;62056;52.130;5.428;2023-10-08T06:50:53;102768.25;;;15.43;84.96
73748;BME280;62056;52.130;5.428;2023-10-08T06:53:37;102762.91;;;15.48;86.85
73748;BME280;62056;52.130;5.428;2023-10-08T06:56:05;102762.06;;;15.53;87.50
73748;BME280;62056;52.130;5.428;2023-10-08T06:58:32;102777.88;;;15.59;87.20
73748;BME280;62056;52.130;5.428;2023-10-08T07:00:59;102780.25;;;15.66;87.76
73748;BME280;62056;52.130;5.428;2023-10-08T07:03:32;102780.00;;;15.73;86.68
73748;BME280;62056;52.130;5.428;2023-10-08T07:06:01;102767.09;;;15.80;88.16
73748;BME280;62056;52.130;5.428;2023-10-08T07:08:31;102777.00;;;15.85;86.50
73748;BME280;62056;52.130;5.428;2023-10-08T07:11:00;102787.44;;;15.91;87.12
73748;BME280;62056;52.130;5.428;2023-10-08T07:13:28;102784.22;;;15.94;86.68
73748;BME280;62056;52.130;5.428;2023-10-08T07:15:56;102788.22;;;15.97;86.48
73748;BME280;62056;52.130;5.428;2023-10-08T07:18:23;102779.88;;;16.04;86.45
73748;BME280;62056;52.130;5.428;2023-10-08T07:20:54;102790.28;;;16.10;87.31
73748;BME280;62056;52.130;5.428;2023-10-08T07:23:23;102804.75;;;16.14;86.02
73748;BME280;62056;52.130;5.428;2023-10-08T07:25:59;102796.19;;;16.17;85.35
73748;BME280;62056;52.130;5.428;2023-10-08T07:28:38;102789.19;;;16.22;86.05
73748;BME280;62056;52.130;5.428;2023-10-08T07:31:18;102785.94;;;16.25;83.92
73748;BME280;62056;52.130;5.428;2023-10-08T07:33:51;102796.66;;;16.30;85.62
73748;BME280;62056;52.130;5.428;2023-10-08T07:36:27;102803.84;;;16.39;86.56
73748;BME280;62056;52.130;5.428;2023-10-08T07:38:55;102790.44;;;16.39;86.11
73748;BME280;62056;52.130;5.428;2023-10-08T07:41:22;102786.06;;;16.44;85.53
73748;BME280;62056;52.130;5.428;2023-10-08T07:43:49;102788.75;;;16.49;85.00
73748;BME280;62056;52.130;5.428;2023-10-08T07:46:23;102790.03;;;16.56;85.07
73748;BME280;62056;52.130;5.428;2023-10-08T07:48:50;102802.63;;;16.61;84.04
73748;BME280;62056;52.130;5.428;2023-10-08T07:51:18;102809.31;;;16.69;85.03
73748;BME280;62056;52.130;5.428;2023-10-08T07:53:51;102800.41;;;16.73;83.98
73748;BME280;62056;52.130;5.428;2023-10-08T07:56:23;102824.00;;;16.76;84.15
73748;BME280;62056;52.130;5.428;2023-10-08T07:58:53;102819.72;;;16.75;83.54
73748;BME280;62056;52.130;5.428;2023-10-08T08:01:23;102828.81;;;16.79;83.90
73748;BME280;62056;52.130;5.428;2023-10-08T08:03:53;102832.59;;;16.84;83.33
73748;BME280;62056;52.130;5.428;2023-10-08T08:06:21;102826.13;;;16.85;78.94
73748;BME280;62056;52.130;5.428;2023-10-08T08:08:49;102833.13;;;16.86;80.31
73748;BME280;62056;52.130;5.428;2023-10-08T08:11:18;102836.28;;;16.93;82.53
73748;BME280;62056;52.130;5.428;2023-10-08T08:13:46;102842.44;;;16.93;81.47
73748;BME280;62056;52.130;5.428;2023-10-08T08:16:16;102834.63;;;16.97;82.10
73748;BME280;62056;52.130;5.428;2023-10-08T08:18:50;102852.31;;;17.03;81.35
73748;BME280;62056;52.130;5.428;2023-10-08T08:21:19;102852.03;;;17.05;81.83
73748;BME280;62056;52.130;5.428;2023-10-08T08:23:47;102855.78;;;17.09;80.87
73748;BME280;62056;52.130;5.428;2023-10-08T08:26:21;102857.63;;;17.08;79.63
73748;BME280;62056;52.130;5.428;2023-10-08T08:28:59;102859.78;;;17.11;79.45
73748;BME280;62056;52.130;5.428;2023-10-08T08:31:27;102851.13;;;17.14;79.88
73748;BME280;62056;52.130;5.428;2023-10-08T08:33:58;102862.66;;;17.20;78.36
73748;BME280;62056;52.130;5.428;2023-10-08T08:36:30;102878.25;;;17.23;76.94
73748;BME280;62056;52.130;5.428;2023-10-08T08:38:58;102883.56;;;17.28;77.46
73748;BME280;62056;52.130;5.428;2023-10-08T08:41:25;102891.88;;;17.32;77.33
73748;BME280;62056;52.130;5.428;2023-10-08T08:43:54;102895.59;;;17.36;78.33
73748;BME280;62056;52.130;5.428;2023-10-08T08:46:31;102892.91;;;17.36;77.80
73748;BME280;62056;52.130;5.428;2023-10-08T08:49:06;102887.81;;;17.34;77.26
73748;BME280;62056;52.130;5.428;2023-10-08T08:51:35;102888.91;;;17.33;76.02
73748;BME280;62056;52.130;5.428;2023-10-08T08:54:05;102887.25;;;17.37;76.87
73748;BME280;62056;52.130;5.428;2023-10-08T08:56:40;102868.91;;;17.45;77.06
73748;BME280;62056;52.130;5.428;2023-10-08T08:59:13;102880.41;;;17.50;76.37
73748;BME280;62056;52.130;5.428;2023-10-08T09:01:41;102873.06;;;17.56;76.48
73748;BME280;62056;52.130;5.428;2023-10-08T09:04:09;102869.78;;;17.64;77.19
73748;BME280;62056;52.130;5.428;2023-10-08T09:06:36;102865.22;;;17.65;76.31
73748;BME280;62056;52.130;5.428;2023-10-08T09:09:06;102872.69;;;17.68;75.97
73748;BME280;62056;52.130;5.428;2023-10-08T09:11:52;102865.06;;;17.75;75.73
73748;BME280;62056;52.130;5.428;2023-10-08T09:14:22;102858.88;;;17.79;75.56
73748;BME280;62056;52.130;5.428;2023-10-08T09:16:49;102861.59;;;17.74;74.90
73748;BME280;62056;52.130;5.428;2023-10-08T09:19:16;102859.09;;;17.83;75.22
73748;BME280;62056;52.130;5.428;2023-10-08T09:22:02;102862.31;;;17.85;71.85
73748;BME280;62056;52.130;5.428;2023-10-08T09:24:32;102860.44;;;17.86;74.24
73748;BME280;62056;52.130;5.428;2023-10-08T09:27:00;102863.13;;;17.86;74.38
73748;BME280;62056;52.130;5.428;2023-10-08T09:29:29;102867.41;;;17.87;73.66
73748;BME280;62056;52.130;5.428;2023-10-08T09:31:57;102866.53;;;17.91;73.90
73748;BME280;62056;52.130;5.428;2023-10-08T09:34:29;102869.47;;;17.95;69.49
73748;BME280;62056;52.130;5.428;2023-10-08T09:36:58;102878.59;;;17.99;71.76
73748;BME280;62056;52.130;5.428;2023-10-08T09:39:30;102875.34;;;18.02;73.02
73748;BME280;62056;52.130;5.428;2023-10-08T09:42:02;102887.16;;;18.01;72.53
73748;BME280;62056;52.130;5.428;2023-10-08T09:44:33;102889.78;;;18.06;72.60
73748;BME280;62056;52.130;5.428;2023-10-08T09:47:07;102883.56;;;18.11;72.19
73748;BME280;62056;52.130;5.428;2023-10-08T09:49:45;102881.66;;;18.11;72.37
73748;BME280;62056;52.130;5.428;2023-10-08T09:52:19;102889.78;;;18.06;71.10
73748;BME280;62056;52.130;5.428;2023-10-08T09:54:59;102886.81;;;18.08;71.76
73748;BME280;62056;52.130;5.428;2023-10-08T09:57:26;102879.25;;;18.10;71.71
73748;BME280;62056;52.130;5.428;2023-10-08T09:59:53;102877.31;;;18.15;71.90
73748;BME280;62056;52.130;5.428;2023-10-08T10:02:21;102878.06;;;18.21;71.67
73748;BME280;62056;52.130;5.428;2023-10-08T10:04:50;102871.56;;;18.22;70.36
73748;BME280;62056;52.130;5.428;2023-10-08T10:07:19;102868.31;;;18.25;71.38
73748;BME280;62056;52.130;5.428;2023-10-08T10:09:50;102860.16;;;18.30;70.80
73748;BME280;62056;52.130;5.428;2023-10-08T10:12:25;102861.78;;;18.31;70.92
73748;BME280;62056;52.130;5.428;2023-10-08T10:14:54;102863.88;;;18.34;71.24
73748;BME280;62056;52.130;5.428;2023-10-08T10:17:27;102866.28;;;18.36;71.24
73748;BME280;62056;52.130;5.428;2023-10-08T10:20:10;102870.28;;;18.38;70.39
73748;BME280;62056;52.130;5.428;2023-10-08T10:22:42;102870.00;;;18.40;71.01
73748;BME280;62056;52.130;5.428;2023-10-08T10:25:16;102876.69;;;18.43;69.97
73748;BME280;62056;52.130;5.428;2023-10-08T10:30:25;102877.44;;;18.48;70.66
73748;BME280;62056;52.130;5.428;2023-10-08T10:32:54;102880.03;;;18.53;70.62
73748;BME280;62056;52.130;5.428;2023-10-08T10:35:21;102874.38;;;18.55;70.31
73748;BME280;62056;52.130;5.428;2023-10-08T10:37:50;102875.38;;;18.59;70.47
73748;BME280;62056;52.130;5.428;2023-10-08T10:40:22;102882.59;;;18.64;70.28
73748;BME280;62056;52.130;5.428;2023-10-08T10:43:07;102878.75;;;18.70;70.56
73748;BME280;62056;52.130;5.428;2023-10-08T10:45:36;102885.16;;;18.74;70.15
73748;BME280;62056;52.130;5.428;2023-10-08T10:48:03;102877.84;;;18.74;69.63
73748;BME280;62056;52.130;5.428;2023-10-08T10:50:46;102888.06;;;18.77;70.01
73748;BME280;62056;52.130;5.428;2023-10-08T10:53:36;102883.47;;;18.78;69.86
73748;BME280;62056;52.130;5.428;2023-10-08T10:56:13;102875.63;;;18.82;69.48
73748;BME280;62056;52.130;5.428;2023-10-08T10:58:47;102866.72;;;18.81;69.73
73748;BME280;62056;52.130;5.428;2023-10-08T11:01:26;102868.19;;;18.73;67.78
73748;BME280;62056;52.130;5.428;2023-10-08T11:03:57;102855.22;;;18.75;69.61
73748;BME280;62056;52.130;5.428;2023-10-08T11:06:27;102858.06;;;18.84;69.90
73748;BME280;62056;52.130;5.428;2023-10-08T11:08:54;102855.38;;;18.84;69.15
73748;BME280;62056;52.130;5.428;2023-10-08T11:11:26;102853.41;;;18.90;68.59
73748;BME280;62056;52.130;5.428;2023-10-08T11:13:59;102862.78;;;18.92;68.88
73748;BME280;62056;52.130;5.428;2023-10-08T11:16:31;102860.16;;;18.87;68.47
73748;BME280;62056;52.130;5.428;2023-10-08T11:18:59;102861.28;;;18.86;68.71
73748;BME280;62056;52.130;5.428;2023-10-08T11:21:48;102867.75;;;18.85;67.26
73748;BME280;62056;52.130;5.428;2023-10-08T11:24:36;102862.50;;;18.94;67.36
73748;BME280;62056;52.130;5.428;2023-10-08T11:27:04;102868.59;;;18.99;68.83
73748;BME280;62056;52.130;5.428;2023-10-08T11:29:43;102862.63;;;19.03;68.47
73748;BME280;62056;52.130;5.428;2023-10-08T11:32:11;102857.16;;;19.08;68.51
73748;BME280;62056;52.130;5.428;2023-10-08T11:34:42;102852.25;;;19.10;68.41
73748;BME280;62056;52.130;5.428;2023-10-08T11:37:11;102856.94;;;19.04;67.92
73748;BME280;62056;52.130;5.428;2023-10-08T11:39:47;102845.66;;;19.02;67.86
73748;BME280;62056;52.130;5.428;2023-10-08T11:42:18;102854.84;;;19.01;67.27
73748;BME280;62056;52.130;5.428;2023-10-08T11:45:00;102849.44;;;19.01;67.32
73748;BME280;62056;52.130;5.428;2023-10-08T11:47:45;102852.44;;;18.99;67.55
73748;BME280;62056;52.130;5.428;2023-10-08T11:50:13;102842.75;;;18.98;67.82
73748;BME280;62056;52.130;5.428;2023-10-08T11:52:45;102849.72;;;18.99;67.94
73748;BME280;62056;52.130;5.428;2023-10-08T11:55:12;102840.28;;;19.02;67.97
73748;BME280;62056;52.130;5.428;2023-10-08T11:57:48;102838.88;;;19.05;67.93
73748;BME280;62056;52.130;5.428;2023-10-08T12:00:16;102846.06;;;19.09;67.68
73748;BME280;62056;52.130;5.428;2023-10-08T12:02:58;102834.19;;;19.10;67.63
73748;BME280;62056;52.130;5.428;2023-10-08T12:05:29;102830.41;;;19.11;67.16
73748;BME280;62056;52.130;5.428;2023-10-08T12:07:56;102818.00;;;19.10;66.94
73748;BME280;62056;52.130;5.428;2023-10-08T12:10:26;102801.53;;;19.12;67.38
73748;BME280;62056;52.130;5.428;2023-10-08T12:12:53;102801.47;;;19.17;67.79
73748;BME280;62056;52.130;5.428;2023-10-08T12:15:23;102792.53;;;19.16;67.10
73748;BME280;62056;52.130;5.428;2023-10-08T12:18:04;102790.47;;;19.13;67.50
73748;BME280;62056;52.130;5.428;2023-10-08T12:20:56;102791.97;;;19.19;67.55
73748;BME280;62056;52.130;5.428;2023-10-08T12:23:25;102788.47;;;19.19;67.74
73748;BME280;62056;52.130;5.428;2023-10-08T12:25:53;102777.38;;;19.20;67.53
73748;BME280;62056;52.130;5.428;2023-10-08T12:28:23;102777.47;;;19.15;67.16
73748;BME280;62056;52.130;5.428;2023-10-08T12:30:51;102778.28;;;19.16;67.21
73748;BME280;62056;52.130;5.428;2023-10-08T12:33:21;102774.78;;;19.15;67.08
73748;BME280;62056;52.130;5.428;2023-10-08T12:35:52;102769.09;;;19.17;66.96
73748;BME280;62056;52.130;5.428;2023-10-08T12:38:23;102769.78;;;19.23;67.69
73748;BME280;62056;52.130;5.428;2023-10-08T12:40:50;102773.69;;;19.30;67.33
73748;BME280;62056;52.130;5.428;2023-10-08T12:43:23;102764.81;;;19.30;67.08
73748;BME280;62056;52.130;5.428;2023-10-08T12:45:54;102759.72;;;19.28;67.18
73748;BME280;62056;52.130;5.428;2023-10-08T12:48:30;102764.31;;;19.28;67.01
73748;BME280;62056;52.130;5.428;2023-10-08T12:50:57;102765.31;;;19.32;66.90
73748;BME280;62056;52.130;5.428;2023-10-08T12:53:26;102752.13;;;19.30;67.01
73748;BME280;62056;52.130;5.428;2023-10-08T12:55:54;102748.34;;;19.31;66.81
73748;BME280;62056;52.130;5.428;2023-10-08T12:58:22;102745.31;;;19.33;66.93
73748;BME280;62056;52.130;5.428;2023-10-08T13:00:53;102743.94;;;19.35;65.44
73748;BME280;62056;52.130;5.428;2023-10-08T13:03:25;102741.53;;;19.34;66.40
73748;BME280;62056;52.130;5.428;2023-10-08T13:05:52;102743.13;;;19.35;66.38
73748;BME280;62056;52.130;5.428;2023-10-08T13:08:20;102748.22;;;19.36;66.20
73748;BME280;62056;52.130;5.428;2023-10-08T13:10:47;102741.72;;;19.37;65.99
73748;BME280;62056;52.130;5.428;2023-10-08T13:13:15;102736.25;;;19.42;66.19
73748;BME280;62056;52.130;5.428;2023-10-08T13:15:42;102740.34;;;19.40;66.03
73748;BME280;62056;52.130;5.428;2023-10-08T13:18:10;102743.63;;;19.37;65.93